createdAt,value
2023-05-11T00:00:01.324Z,0.00
2023-05-11T00:10:01.154Z,0.00
2023-05-11T00:20:01.389Z,0.00
2023-05-11T00:30:01.192Z,0.00
2023-05-11T00:40:02.187Z,0.00
2023-05-11T00:50:02.277Z,0.00
2023-05-11T01:00:01.046Z,0.00
2023-05-11T01:10:01.429Z,0.00
2023-05-11T01:20:01.128Z,0.00
2023-05-11T01:30:02.998Z,0.00
2023-05-11T01:40:01.134Z,0.00
2023-05-11T01:50:01.266Z,0.00
2023-05-11T02:00:01.074Z,0.00
2023-05-11T02:10:01.051Z,0.00
2023-05-11T02:20:01.030Z,0.00
2023-05-11T02:30:01.046Z,0.00
2023-05-11T02:40:01.140Z,0.34
2023-05-11T02:50:01.278Z,2.15
2023-05-11T03:10:01.155Z,18.33
2023-05-11T03:20:01.147Z,112.92
2023-05-11T03:30:01.071Z,230.83
2023-05-11T03:40:01.124Z,389.58
2023-05-11T03:50:01.113Z,557.92
2023-05-11T04:00:01.304Z,370.00
2023-05-11T04:10:01.183Z,911.67
2023-05-11T04:20:01.063Z,530.00
2023-05-11T04:30:01.146Z,1204.17
2023-05-11T04:40:01.043Z,661.67
2023-05-11T04:50:01.306Z,1444.58
2023-05-11T05:00:01.285Z,1549.17
2023-05-11T05:10:01.138Z,1656.25
2023-05-11T05:20:01.024Z,1734.58
2023-05-11T05:30:01.157Z,1824.58
2023-05-11T05:40:01.112Z,955.00
2023-05-11T05:50:01.049Z,1992.50
2023-05-11T06:00:01.021Z,2070.83
2023-05-11T06:10:01.125Z,1056.67
2023-05-11T06:20:01.299Z,1085.00
2023-05-11T06:30:01.048Z,2217.08
2023-05-11T06:40:01.321Z,1116.67
2023-05-11T06:50:01.342Z,1136.67
2023-05-11T07:00:01.650Z,2300.83
2023-05-11T07:10:01.401Z,1168.33
2023-05-11T07:20:01.082Z,1193.33
2023-05-11T07:30:01.458Z,1225.00
2023-05-11T07:40:01.067Z,2511.25
2023-05-11T07:50:01.291Z,2598.33
2023-05-11T08:00:01.342Z,1326.67
2023-05-11T08:10:01.310Z,2752.08
2023-05-11T08:20:01.016Z,2827.08
2023-05-11T08:30:01.312Z,2916.67
2023-05-11T08:40:01.350Z,3010.83
2023-05-11T08:50:01.163Z,3125.83
2023-05-11T09:00:02.994Z,3229.58
2023-05-11T09:10:00.993Z,3322.50
2023-05-11T09:20:03.452Z,3459.58
2023-05-11T09:30:01.034Z,1893.33
2023-05-11T09:50:01.380Z,3935.42
2023-05-11T10:00:01.104Z,4505.42
2023-05-11T10:10:02.546Z,5051.67
2023-05-11T10:20:01.489Z,5296.67
2023-05-11T10:30:01.350Z,3413.33
2023-05-11T10:40:01.349Z,35433.33
2023-05-11T11:00:01.316Z,35095.00
2023-05-11T11:10:01.117Z,10988.75
2023-05-11T11:20:01.263Z,37107.50
2023-05-11T11:30:01.389Z,36725.00
2023-05-11T11:40:09.319Z,7522.50
2023-05-11T11:50:01.580Z,17927.08
2023-05-11T12:00:01.134Z,9229.58
2023-05-11T12:10:01.338Z,8611.25
2023-05-11T12:20:01.210Z,11679.17
2023-05-11T12:30:01.158Z,9760.83
2023-05-11T12:40:01.187Z,14826.67
2023-05-11T12:50:01.203Z,9572.08
2023-05-11T13:00:01.151Z,14431.25
2023-05-11T13:10:01.146Z,13930.42
2023-05-11T13:20:01.358Z,8872.50
2023-05-11T13:30:01.473Z,9184.58
2023-05-11T13:40:01.203Z,16112.08
2023-05-11T13:50:01.233Z,8769.58
2023-05-11T14:10:01.220Z,9740.83
2023-05-11T14:20:01.182Z,8169.58
2023-05-11T14:30:01.198Z,11408.75
2023-05-11T14:40:01.161Z,30782.50
2023-05-11T14:50:01.180Z,17379.17
2023-05-11T15:00:01.130Z,14157.50
2023-05-11T15:10:01.368Z,25719.58
2023-05-11T15:20:01.153Z,12813.33
2023-05-11T15:30:01.325Z,22263.33
2023-05-11T15:40:01.197Z,17579.17
2023-05-11T15:50:01.264Z,24259.58
2023-05-11T16:00:01.463Z,24666.25
2023-05-11T16:10:01.213Z,23598.75
2023-05-11T16:20:01.227Z,22773.75
2023-05-11T16:30:08.441Z,19155.00
2023-05-11T16:40:01.125Z,7607.08
2023-05-11T16:50:01.165Z,5153.33
2023-05-11T17:00:01.321Z,3112.50
2023-05-11T17:10:01.164Z,2417.50
2023-05-11T17:20:01.102Z,2385.83
2023-05-11T17:30:01.141Z,2080.42
2023-05-11T17:40:01.353Z,1470.00
2023-05-11T17:50:01.184Z,1136.25
2023-05-11T18:00:01.197Z,733.33
2023-05-11T18:10:01.232Z,258.33
2023-05-11T18:20:01.211Z,361.25
2023-05-11T18:30:01.250Z,181.67
2023-05-11T18:40:01.216Z,48.33
2023-05-11T18:50:01.446Z,18.33
2023-05-11T19:00:01.359Z,20.00
2023-05-11T19:10:01.504Z,6.00
2023-05-11T19:20:01.136Z,1.58
2023-05-11T19:30:01.224Z,0.57
2023-05-11T19:40:19.184Z,0.34
2023-05-11T19:50:01.190Z,0.00
2023-05-11T20:00:01.261Z,0.00
2023-05-11T20:10:01.134Z,0.00
2023-05-11T20:20:01.134Z,0.00
2023-05-11T20:30:01.168Z,0.00
2023-05-11T20:40:01.200Z,0.00
2023-05-11T20:50:01.253Z,0.00
2023-05-11T21:00:04.465Z,0.00
2023-05-11T21:10:01.128Z,0.00
2023-05-11T21:20:01.163Z,0.00
2023-05-11T21:30:01.191Z,0.00
2023-05-11T21:40:01.152Z,0.00
2023-05-11T21:50:01.120Z,0.00
2023-05-11T22:00:01.171Z,0.00
2023-05-11T22:10:01.232Z,0.00
2023-05-11T22:20:01.201Z,0.00
2023-05-11T22:30:01.259Z,0.00
2023-05-11T22:40:01.180Z,0.00
2023-05-11T22:50:01.193Z,0.00
2023-05-11T23:00:01.202Z,0.00
2023-05-11T23:10:01.199Z,0.00
2023-05-11T23:20:00.401Z,0.11
2023-05-11T23:30:01.224Z,0.00
2023-05-11T23:40:01.185Z,0.00
